createdAt,value
2018-05-29T00:00:41.375Z,69.60
2018-05-29T00:03:08.979Z,70.40
2018-05-29T00:05:36.553Z,69.60
2018-05-29T00:08:04.045Z,69.60
2018-05-29T00:10:31.541Z,69.60
2018-05-29T00:12:59.074Z,69.60
2018-05-29T00:15:27.437Z,69.60
2018-05-29T00:17:54.921Z,69.60
2018-05-29T00:20:23.187Z,69.60
2018-05-29T00:22:51.551Z,69.60
2018-05-29T00:25:19.127Z,69.60
2018-05-29T00:27:46.701Z,69.50
2018-05-29T00:30:14.191Z,69.40
2018-05-29T00:32:41.687Z,69.40
2018-05-29T00:35:09.182Z,69.40
2018-05-29T00:37:36.751Z,69.40
2018-05-29T00:40:04.304Z,69.50
2018-05-29T00:42:31.827Z,69.40
2018-05-29T00:44:59.322Z,69.40
2018-05-29T00:47:26.809Z,69.30
2018-05-29T00:49:54.372Z,69.30
2018-05-29T00:52:21.883Z,69.40
2018-05-29T00:55:11.083Z,69.60
2018-05-29T00:57:38.589Z,69.60
2018-05-29T01:00:06.938Z,69.60
2018-05-29T01:02:34.425Z,69.70
2018-05-29T01:05:02.789Z,69.60
2018-05-29T01:07:31.177Z,69.60
2018-05-29T01:09:58.735Z,69.50
2018-05-29T01:12:26.225Z,69.40
2018-05-29T01:14:54.489Z,69.60
2018-05-29T01:17:21.993Z,69.60
2018-05-29T01:19:49.511Z,69.70
2018-05-29T01:22:17.037Z,69.70
2018-05-29T01:24:44.659Z,69.70
2018-05-29T01:27:12.227Z,69.80
2018-05-29T01:29:39.771Z,69.80
2018-05-29T01:32:07.306Z,69.90
2018-05-29T01:34:34.803Z,70.10
2018-05-29T01:37:02.379Z,70.10
2018-05-29T01:39:29.895Z,70.20
2018-05-29T01:41:57.403Z,70.20
2018-05-29T01:44:24.917Z,70.20
2018-05-29T01:46:52.419Z,70.20
2018-05-29T01:49:19.917Z,70.30
2018-05-29T01:51:48.267Z,70.30
2018-05-29T01:54:15.771Z,70.40
2018-05-29T01:56:44.056Z,70.40
2018-05-29T01:59:12.330Z,70.30
2018-05-29T02:01:40.600Z,70.30
2018-05-29T02:04:08.101Z,70.30
2018-05-29T02:06:35.595Z,70.30
2018-05-29T02:09:03.118Z,70.20
2018-05-29T02:11:31.386Z,70.10
2018-05-29T02:13:59.653Z,70.10
2018-05-29T02:16:27.209Z,70.10
2018-05-29T02:18:54.731Z,70.10
2018-05-29T02:21:22.247Z,70.00
2018-05-29T02:23:49.759Z,70.00
2018-05-29T02:26:17.263Z,70.00
2018-05-29T02:28:44.765Z,70.00
2018-05-29T02:31:13.113Z,70.10
2018-05-29T02:33:40.629Z,70.10
2018-05-29T02:36:08.112Z,70.10
2018-05-29T02:38:35.625Z,70.00
2018-05-29T02:41:03.173Z,70.70
2018-05-29T02:43:30.663Z,69.90
2018-05-29T02:45:59.028Z,69.70
2018-05-29T02:48:26.592Z,69.70
2018-05-29T02:50:54.153Z,69.70
2018-05-29T02:53:21.733Z,69.70
2018-05-29T02:55:49.228Z,69.70
2018-05-29T02:58:16.814Z,69.70
2018-05-29T03:00:44.310Z,69.80
2018-05-29T03:03:11.811Z,69.80
2018-05-29T03:05:40.069Z,69.80
2018-05-29T03:08:07.577Z,69.80
2018-05-29T03:10:35.090Z,69.80
2018-05-29T03:13:02.662Z,69.80
2018-05-29T03:15:30.148Z,69.90
2018-05-29T03:17:58.521Z,70.30
2018-05-29T03:20:26.003Z,70.30
2018-05-29T03:22:54.280Z,70.50
2018-05-29T03:25:22.549Z,70.50
2018-05-29T03:27:50.105Z,70.50
2018-05-29T03:30:17.630Z,70.50
2018-05-29T03:32:45.253Z,70.50
2018-05-29T03:35:12.797Z,70.50
2018-05-29T03:37:40.307Z,70.50
2018-05-29T03:40:07.839Z,70.50
2018-05-29T03:42:35.345Z,70.50
2018-05-29T03:45:02.856Z,70.50
2018-05-29T03:47:30.369Z,70.30
2018-05-29T03:49:57.886Z,70.40
2018-05-29T03:52:25.378Z,70.40
2018-05-29T03:54:53.741Z,70.40
2018-05-29T03:57:21.230Z,70.50
2018-05-29T03:59:49.584Z,70.50
2018-05-29T04:02:17.070Z,70.50
2018-05-29T04:04:45.345Z,70.80
2018-05-29T04:07:12.892Z,70.80
2018-05-29T04:09:40.398Z,70.90
2018-05-29T04:12:07.900Z,71.00
2018-05-29T04:14:35.391Z,70.90
2018-05-29T04:17:02.990Z,71.10
2018-05-29T04:19:30.524Z,71.10
2018-05-29T04:21:58.020Z,71.10
2018-05-29T04:24:26.302Z,71.10
2018-05-29T04:26:54.554Z,71.20
2018-05-29T04:29:22.062Z,71.30
2018-05-29T04:31:49.559Z,71.20
2018-05-29T04:34:17.150Z,71.10
2018-05-29T04:36:44.699Z,71.10
2018-05-29T04:39:12.247Z,71.20
2018-05-29T04:41:39.825Z,71.30
2018-05-29T04:44:07.309Z,71.40
2018-05-29T04:46:34.769Z,71.40
2018-05-29T04:49:02.320Z,71.30
2018-05-29T04:51:29.827Z,71.20
2018-05-29T04:53:58.182Z,71.20
2018-05-29T04:56:25.752Z,71.20
2018-05-29T04:58:53.252Z,71.20
2018-05-29T05:01:21.528Z,71.10
2018-05-29T05:03:49.784Z,71.10
2018-05-29T05:06:17.276Z,71.10
2018-05-29T05:08:44.776Z,71.00
2018-05-29T05:11:12.375Z,71.00
2018-05-29T05:13:39.942Z,71.20
2018-05-29T05:16:07.432Z,71.20
2018-05-29T05:18:35.691Z,71.20
2018-05-29T05:21:03.189Z,71.20
2018-05-29T05:23:30.700Z,71.10
2018-05-29T05:25:58.233Z,71.30
2018-05-29T05:28:25.733Z,71.20
2018-05-29T05:30:53.259Z,71.20
2018-05-29T05:33:20.775Z,71.40
2018-05-29T05:35:48.330Z,71.50
2018-05-29T05:38:15.852Z,71.70
2018-05-29T05:40:43.424Z,71.90
2018-05-29T05:43:10.889Z,72.20
2018-05-29T05:45:38.398Z,72.20
2018-05-29T05:48:06.666Z,72.20
2018-05-29T05:50:34.260Z,72.20
2018-05-29T05:53:02.636Z,73.20
2018-05-29T05:55:30.149Z,72.50
2018-05-29T05:57:57.657Z,72.40
2018-05-29T06:00:25.151Z,72.40
2018-05-29T06:02:53.434Z,72.30
2018-05-29T06:05:21.793Z,72.20
2018-05-29T06:07:49.301Z,72.20
2018-05-29T06:10:16.803Z,72.00
2018-05-29T06:12:44.289Z,72.20
2018-05-29T06:15:11.796Z,72.20
2018-05-29T06:17:39.318Z,72.20
2018-05-29T06:20:06.823Z,72.00
2018-05-29T06:22:34.326Z,72.00
2018-05-29T06:25:01.926Z,72.30
2018-05-29T06:27:30.299Z,72.30
2018-05-29T06:29:57.800Z,72.60
2018-05-29T06:32:25.324Z,72.70
2018-05-29T06:34:52.820Z,72.70
2018-05-29T06:37:21.174Z,72.90
2018-05-29T06:39:48.736Z,72.90
2018-05-29T06:42:17.751Z,73.20
2018-05-29T06:44:46.009Z,73.20
2018-05-29T06:47:13.504Z,73.20
2018-05-29T06:49:41.758Z,73.30
2018-05-29T06:52:09.327Z,73.30
2018-05-29T06:54:36.903Z,73.20
2018-05-29T06:57:05.995Z,73.40
2018-05-29T06:59:33.528Z,73.50
2018-05-29T07:02:01.123Z,73.50
2018-05-29T07:04:28.700Z,73.60
2018-05-29T07:06:56.220Z,73.60
2018-05-29T07:09:29.658Z,73.70
2018-05-29T07:11:57.908Z,73.60
2018-05-29T07:14:25.498Z,73.60
2018-05-29T07:16:53.073Z,73.30
2018-05-29T07:19:20.556Z,73.20
2018-05-29T07:21:48.911Z,73.40
2018-05-29T07:24:16.547Z,73.40
2018-05-29T07:26:44.871Z,73.70
2018-05-29T07:29:12.358Z,73.60
2018-05-29T07:31:40.718Z,73.30
2018-05-29T07:34:08.224Z,73.30
2018-05-29T07:36:35.753Z,73.30
2018-05-29T07:39:03.323Z,73.20
2018-05-29T07:41:30.820Z,73.10
2018-05-29T07:43:58.344Z,73.00
2018-05-29T07:46:25.906Z,72.90
2018-05-29T07:48:53.417Z,72.80
2018-05-29T07:51:20.937Z,73.00
2018-05-29T07:53:48.525Z,73.00
2018-05-29T07:56:16.886Z,72.80
2018-05-29T07:58:44.402Z,72.80
2018-05-29T08:01:12.017Z,72.70
2018-05-29T08:03:39.599Z,72.70
2018-05-29T08:06:07.098Z,72.60
2018-05-29T08:08:34.623Z,72.40
2018-05-29T08:11:03.616Z,72.10
2018-05-29T08:13:31.178Z,72.10
2018-05-29T08:15:58.665Z,72.00
2018-05-29T08:18:26.952Z,71.80
2018-05-29T08:20:55.201Z,71.70
2018-05-29T08:23:22.769Z,71.70
2018-05-29T08:25:50.341Z,71.70
2018-05-29T08:28:17.835Z,71.50
2018-05-29T08:30:46.191Z,71.50
2018-05-29T08:33:13.753Z,71.60
2018-05-29T08:35:41.249Z,71.60
2018-05-29T08:38:09.504Z,71.80
2018-05-29T08:40:37.069Z,71.90
2018-05-29T08:43:04.581Z,71.90
2018-05-29T08:45:32.089Z,72.80
2018-05-29T08:47:59.658Z,72.00
2018-05-29T08:50:27.189Z,72.00
2018-05-29T08:52:54.795Z,71.90
2018-05-29T08:55:22.345Z,71.90
2018-05-29T08:57:49.874Z,72.00
2018-05-29T09:00:17.357Z,71.90
2018-05-29T09:02:44.861Z,71.70
2018-05-29T09:05:12.416Z,71.40
2018-05-29T09:07:39.995Z,71.30
2018-05-29T09:10:07.498Z,71.10
2018-05-29T09:12:34.990Z,70.90
2018-05-29T09:15:02.573Z,70.80
2018-05-29T09:17:30.089Z,70.70
2018-05-29T09:19:57.594Z,70.60
2018-05-29T09:22:25.095Z,70.60
2018-05-29T09:24:53.369Z,70.30
2018-05-29T09:27:21.627Z,70.40
2018-05-29T09:29:49.212Z,70.20
2018-05-29T09:32:16.663Z,70.20
2018-05-29T09:34:44.217Z,70.40
2018-05-29T09:37:11.811Z,70.60
2018-05-29T09:39:39.293Z,70.50
2018-05-29T09:42:06.821Z,70.40
2018-05-29T09:44:34.400Z,70.30
2018-05-29T09:47:01.920Z,69.90
2018-05-29T09:49:29.530Z,70.50
2018-05-29T09:51:57.082Z,69.60
2018-05-29T09:54:24.661Z,69.50
2018-05-29T09:56:52.232Z,69.50
2018-05-29T09:59:19.719Z,69.30
2018-05-29T10:01:48.065Z,69.20
2018-05-29T10:04:15.552Z,69.20
2018-05-29T10:06:43.816Z,69.20
2018-05-29T10:09:11.309Z,69.10
2018-05-29T10:11:39.664Z,69.20
2018-05-29T10:14:07.235Z,69.10
2018-05-29T10:16:34.808Z,69.10
2018-05-29T10:19:02.322Z,69.00
2018-05-29T10:21:31.564Z,68.60
2018-05-29T10:23:59.070Z,68.60
2018-05-29T10:26:26.585Z,68.60
2018-05-29T10:28:54.103Z,68.60
2018-05-29T10:31:21.612Z,68.70
2018-05-29T10:33:49.186Z,68.60
2018-05-29T10:36:16.718Z,68.50
2018-05-29T10:38:44.239Z,68.30
2018-05-29T10:41:12.602Z,68.10
2018-05-29T10:43:40.136Z,68.10
2018-05-29T10:46:07.699Z,68.00
2018-05-29T10:48:35.212Z,68.00
2018-05-29T10:51:02.729Z,68.00
2018-05-29T10:53:30.330Z,67.70
2018-05-29T10:55:57.833Z,67.50
2018-05-29T10:58:25.334Z,67.10
2018-05-29T11:00:52.923Z,66.90
2018-05-29T11:03:21.217Z,66.50
2018-05-29T11:05:48.777Z,66.60
2018-05-29T11:08:16.276Z,66.20
2018-05-29T11:10:43.775Z,65.90
2018-05-29T11:13:11.272Z,65.90
2018-05-29T11:15:40.359Z,65.60
2018-05-29T11:18:07.856Z,65.60
2018-05-29T11:20:36.211Z,65.50
2018-05-29T11:23:03.706Z,65.60
2018-05-29T11:25:32.070Z,65.40
2018-05-29T11:27:59.589Z,65.40
2018-05-29T11:30:27.095Z,65.40
2018-05-29T11:32:54.592Z,65.30
2018-05-29T11:35:22.138Z,65.20
2018-05-29T11:37:50.502Z,65.40
2018-05-29T11:40:18.044Z,65.40
2018-05-29T11:42:45.531Z,65.50
2018-05-29T11:45:13.042Z,65.60
2018-05-29T11:47:40.548Z,65.60
2018-05-29T11:50:08.137Z,65.50
2018-05-29T11:55:08.484Z,65.30
2018-05-29T11:57:35.973Z,65.40
2018-05-29T12:00:04.329Z,65.70
2018-05-29T12:02:31.895Z,65.70
2018-05-29T12:04:59.484Z,66.10
2018-05-29T12:07:27.753Z,66.70
2018-05-29T12:09:55.313Z,66.70
2018-05-29T12:12:25.699Z,66.90
2018-05-29T12:14:53.215Z,66.90
2018-05-29T12:17:20.718Z,67.20
2018-05-29T12:19:48.216Z,67.10
2018-05-29T12:22:15.717Z,67.40
2018-05-29T12:24:44.137Z,67.80
2018-05-29T12:27:11.658Z,67.70
2018-05-29T12:29:39.180Z,68.00
2018-05-29T12:32:06.678Z,68.30
2018-05-29T12:34:34.247Z,68.70
2018-05-29T12:37:01.812Z,69.50
2018-05-29T12:39:29.386Z,68.60
2018-05-29T12:41:56.901Z,69.30
2018-05-29T12:44:24.390Z,68.80
2018-05-29T12:46:51.966Z,69.00
2018-05-29T12:49:19.460Z,68.90
2018-05-29T12:51:47.822Z,69.10
2018-05-29T12:54:15.340Z,69.10
2018-05-29T12:56:42.962Z,69.30
2018-05-29T12:59:10.539Z,69.40
2018-05-29T13:01:38.904Z,69.70
2018-05-29T13:04:07.184Z,69.50
2018-05-29T13:06:34.682Z,69.50
2018-05-29T13:09:02.188Z,69.40
2018-05-29T13:11:29.694Z,69.20
2018-05-29T13:13:57.955Z,68.90
2018-05-29T13:16:25.516Z,69.10
2018-05-29T13:18:53.112Z,68.70
2018-05-29T13:21:21.390Z,68.00
2018-05-29T13:23:49.674Z,67.90
2018-05-29T13:26:17.938Z,67.70
2018-05-29T13:28:45.446Z,67.80
2018-05-29T13:31:12.947Z,67.30
2018-05-29T13:33:40.577Z,67.20
2018-05-29T13:36:08.139Z,67.20
2018-05-29T13:38:35.664Z,67.20
2018-05-29T13:41:03.159Z,66.90
2018-05-29T13:43:31.509Z,66.90
2018-05-29T13:45:59.013Z,66.90
2018-05-29T13:48:26.542Z,66.90
2018-05-29T13:50:54.078Z,66.80
2018-05-29T13:53:21.666Z,66.70
2018-05-29T13:55:49.231Z,66.40
2018-05-29T13:58:16.825Z,66.40
2018-05-29T14:00:45.109Z,65.60
2018-05-29T14:03:13.378Z,65.30
2018-05-29T14:05:40.862Z,65.30
2018-05-29T14:08:09.142Z,65.00
2018-05-29T14:10:37.437Z,64.80
2018-05-29T14:13:04.938Z,65.50
2018-05-29T14:15:32.427Z,64.70
2018-05-29T14:17:59.931Z,64.70
2018-05-29T14:20:27.453Z,64.60
2018-05-29T14:22:54.948Z,64.50
2018-05-29T14:25:23.222Z,64.70
2018-05-29T14:27:51.594Z,64.90
2018-05-29T14:30:19.096Z,64.90
2018-05-29T14:32:46.622Z,65.40
2018-05-29T14:35:14.112Z,64.70
2018-05-29T14:37:42.458Z,64.40
2018-05-29T14:40:10.037Z,64.40
2018-05-29T14:42:37.540Z,64.10
2018-05-29T14:45:05.069Z,63.70
2018-05-29T14:47:33.396Z,64.10
2018-05-29T14:50:01.001Z,64.20
2018-05-29T14:52:28.502Z,63.30
2018-05-29T14:54:56.859Z,63.10
2018-05-29T14:57:24.347Z,63.10
2018-05-29T14:59:52.603Z,63.10
2018-05-29T15:02:20.157Z,63.10
2018-05-29T15:04:47.674Z,63.40
2018-05-29T15:07:15.170Z,63.70
2018-05-29T15:09:42.754Z,63.50
2018-05-29T15:12:10.248Z,63.60
2018-05-29T15:14:38.523Z,63.90
2018-05-29T15:17:06.787Z,63.90
2018-05-29T15:19:34.290Z,63.70
2018-05-29T15:22:02.545Z,64.10
2018-05-29T15:24:30.049Z,64.10
2018-05-29T15:26:57.559Z,63.60
2018-05-29T15:29:25.136Z,63.40
2018-05-29T15:31:52.707Z,63.30
2018-05-29T15:34:20.978Z,64.00
2018-05-29T15:36:48.468Z,63.20
2018-05-29T15:39:16.828Z,63.40
2018-05-29T15:41:45.836Z,63.20
2018-05-29T15:44:13.332Z,63.20
2018-05-29T15:46:40.834Z,63.20
2018-05-29T15:49:08.431Z,63.20
2018-05-29T15:51:35.961Z,63.20
2018-05-29T15:54:03.472Z,63.50
2018-05-29T15:56:31.732Z,63.80
2018-05-29T15:58:59.257Z,63.80
2018-05-29T16:01:26.772Z,63.80
2018-05-29T16:03:54.353Z,63.70
2018-05-29T16:06:22.602Z,63.20
2018-05-29T16:08:50.115Z,63.20
2018-05-29T16:11:17.618Z,62.90
2018-05-29T16:13:45.205Z,63.50
2018-05-29T16:16:13.490Z,62.60
2018-05-29T16:18:40.981Z,62.60
2018-05-29T16:21:09.341Z,62.80
2018-05-29T16:23:36.849Z,62.90
2018-05-29T16:26:04.366Z,62.80
2018-05-29T16:28:31.932Z,62.60
2018-05-29T16:30:59.439Z,62.40
2018-05-29T16:33:26.973Z,62.20
2018-05-29T16:35:55.239Z,63.30
2018-05-29T16:38:22.754Z,62.40
2018-05-29T16:40:50.280Z,62.50
2018-05-29T16:43:18.536Z,62.30
2018-05-29T16:45:46.043Z,62.30
2018-05-29T16:48:14.300Z,62.30
2018-05-29T16:50:42.561Z,61.70
2018-05-29T16:53:10.157Z,61.70
2018-05-29T16:55:37.673Z,61.50
2018-05-29T16:58:05.157Z,61.40
2018-05-29T17:00:32.669Z,61.10
2018-05-29T17:03:00.928Z,60.80
2018-05-29T17:05:28.485Z,60.70
2018-05-29T17:07:56.008Z,60.70
2018-05-29T17:10:23.529Z,60.70
2018-05-29T17:12:51.019Z,60.80
2018-05-29T17:15:18.568Z,60.60
2018-05-29T17:17:46.121Z,60.10
2018-05-29T17:20:13.616Z,60.00
2018-05-29T17:22:41.153Z,60.00
2018-05-29T17:25:09.533Z,60.30
2018-05-29T17:27:37.042Z,60.20
2018-05-29T17:30:04.555Z,60.40
2018-05-29T17:32:32.078Z,60.60
2018-05-29T17:34:59.597Z,60.70
2018-05-29T17:37:27.171Z,60.60
2018-05-29T17:39:55.443Z,61.30
2018-05-29T17:42:23.736Z,60.60
2018-05-29T17:44:51.995Z,60.40
2018-05-29T17:47:19.529Z,60.50
2018-05-29T17:49:47.140Z,60.40
2018-05-29T17:52:14.645Z,60.40
2018-05-29T17:54:42.162Z,59.90
2018-05-29T17:57:09.668Z,59.60
2018-05-29T17:59:37.161Z,59.40
2018-05-29T18:02:04.671Z,59.30
2018-05-29T18:04:32.944Z,59.90
2018-05-29T18:07:00.501Z,59.30
2018-05-29T18:09:28.009Z,59.60
2018-05-29T18:11:55.524Z,59.90
2018-05-29T18:14:23.019Z,60.10
2018-05-29T18:16:51.287Z,60.40
2018-05-29T18:19:18.843Z,60.40
2018-05-29T18:21:46.331Z,60.40
2018-05-29T18:24:14.593Z,61.50
2018-05-29T18:26:42.083Z,60.80
2018-05-29T18:29:09.583Z,60.80
2018-05-29T18:31:37.099Z,60.90
2018-05-29T18:34:05.365Z,61.00
2018-05-29T18:36:32.876Z,61.70
2018-05-29T18:39:00.390Z,61.10
2018-05-29T18:41:27.891Z,61.10
2018-05-29T18:43:56.191Z,61.20
2018-05-29T18:46:23.696Z,61.10
2018-05-29T18:48:51.194Z,61.50
2018-05-29T18:51:19.571Z,61.80
2018-05-29T18:53:47.842Z,62.10
2018-05-29T18:56:15.418Z,62.10
2018-05-29T18:58:43.693Z,62.40
2018-05-29T19:01:11.225Z,62.40
2018-05-29T19:03:38.843Z,62.50
2018-05-29T19:06:06.396Z,62.60
2018-05-29T19:08:35.492Z,63.80
2018-05-29T19:11:03.036Z,62.90
2018-05-29T19:13:30.641Z,63.10
2018-05-29T19:15:58.919Z,63.50
2018-05-29T19:18:27.309Z,63.90
2018-05-29T19:20:55.603Z,64.00
2018-05-29T19:23:23.084Z,64.10
2018-05-29T19:25:50.625Z,64.10
2018-05-29T19:28:18.975Z,64.10
2018-05-29T19:30:46.527Z,64.10
2018-05-29T19:33:14.125Z,64.10
2018-05-29T19:35:42.383Z,64.40
2018-05-29T19:38:09.891Z,64.40
2018-05-29T19:40:37.426Z,64.50
2018-05-29T19:43:04.981Z,64.40
2018-05-29T19:45:32.532Z,64.30
2018-05-29T19:48:00.020Z,64.20
2018-05-29T19:50:27.561Z,64.20
2018-05-29T19:52:55.057Z,64.20
2018-05-29T19:55:23.455Z,64.50
2018-05-29T19:57:52.703Z,64.50
2018-05-29T20:00:20.321Z,64.40
2018-05-29T20:02:48.599Z,64.40
2018-05-29T20:05:16.869Z,64.40
2018-05-29T20:07:44.470Z,64.40
2018-05-29T20:10:12.029Z,64.30
2018-05-29T20:12:40.413Z,64.30
2018-05-29T20:15:07.967Z,64.30
2018-05-29T20:17:36.227Z,64.30
2018-05-29T20:20:03.800Z,64.40
2018-05-29T20:22:31.309Z,64.30
2018-05-29T20:24:58.823Z,64.70
2018-05-29T20:27:26.345Z,65.20
2018-05-29T20:29:53.877Z,65.80
2018-05-29T20:32:22.255Z,66.70
2018-05-29T20:34:50.613Z,67.00
2018-05-29T20:37:18.206Z,67.10
2018-05-29T20:39:46.473Z,67.80
2018-05-29T20:42:14.260Z,67.80
2018-05-29T20:44:42.529Z,68.30
2018-05-29T20:47:10.064Z,68.30
2018-05-29T20:49:38.353Z,68.30
2018-05-29T20:52:05.899Z,68.40
2018-05-29T20:54:33.399Z,68.70
2018-05-29T20:57:00.899Z,68.60
2018-05-29T20:59:28.430Z,68.70
2018-05-29T21:01:56.718Z,68.50
2018-05-29T21:04:24.287Z,68.50
2018-05-29T21:06:51.845Z,68.60
2018-05-29T21:09:19.355Z,68.80
2018-05-29T21:11:46.892Z,69.10
2018-05-29T21:14:15.152Z,69.20
2018-05-29T21:16:42.725Z,69.20
2018-05-29T21:19:10.296Z,69.20
2018-05-29T21:21:37.804Z,69.20
2018-05-29T21:24:05.328Z,69.30
2018-05-29T21:26:32.837Z,69.50
2018-05-29T21:29:00.335Z,69.50
2018-05-29T21:31:27.829Z,69.50
2018-05-29T21:33:56.099Z,69.00
2018-05-29T21:36:23.660Z,69.50
2018-05-29T21:38:51.162Z,69.40
2018-05-29T21:41:18.694Z,69.40
2018-05-29T21:43:46.252Z,69.40
2018-05-29T21:46:13.826Z,69.50
2018-05-29T21:48:41.350Z,69.50
2018-05-29T21:51:08.954Z,69.60
2018-05-29T21:53:36.451Z,69.80
2018-05-29T21:56:03.957Z,69.80
2018-05-29T21:58:31.551Z,69.90
2018-05-29T22:00:59.133Z,70.10
2018-05-29T22:03:27.400Z,69.60
2018-05-29T22:05:54.899Z,69.60
2018-05-29T22:08:22.425Z,69.50
2018-05-29T22:10:49.915Z,69.60
2018-05-29T22:13:18.194Z,69.50
2018-05-29T22:15:46.465Z,69.40
2018-05-29T22:18:13.958Z,69.40
2018-05-29T22:20:41.498Z,69.30
2018-05-29T22:23:09.863Z,69.30
2018-05-29T22:25:37.426Z,69.30
2018-05-29T22:28:04.938Z,69.20
2018-05-29T22:30:32.485Z,69.20
2018-05-29T22:33:00.027Z,69.20
2018-05-29T22:35:27.515Z,69.20
2018-05-29T22:37:55.882Z,69.10
2018-05-29T22:40:23.379Z,69.10
2018-05-29T22:42:50.893Z,69.10
2018-05-29T22:45:18.384Z,69.20
2018-05-29T22:47:46.655Z,69.40
2018-05-29T22:50:14.207Z,69.10
2018-05-29T22:52:41.712Z,69.20
2018-05-29T22:55:09.207Z,69.10
2018-05-29T22:57:36.705Z,69.10
2018-05-29T23:00:04.187Z,69.20
2018-05-29T23:02:32.465Z,69.20
2018-05-29T23:04:59.951Z,69.20
2018-05-29T23:07:28.315Z,69.20
2018-05-29T23:09:55.868Z,69.40
2018-05-29T23:12:24.149Z,69.20
2018-05-29T23:14:51.661Z,69.20
2018-05-29T23:17:19.172Z,69.20
2018-05-29T23:19:46.742Z,69.20
2018-05-29T23:22:14.258Z,69.30
2018-05-29T23:24:41.769Z,69.30
2018-05-29T23:27:09.285Z,69.30
2018-05-29T23:29:36.799Z,69.20
2018-05-29T23:32:04.379Z,69.30
2018-05-29T23:34:31.866Z,69.30
2018-05-29T23:37:00.221Z,69.40
2018-05-29T23:39:27.786Z,69.40
2018-05-29T23:41:55.343Z,69.40
2018-05-29T23:44:22.914Z,69.50
2018-05-29T23:46:50.490Z,69.40
2018-05-29T23:49:17.978Z,69.40
2018-05-29T23:51:46.234Z,69.50
2018-05-29T23:54:13.719Z,69.60
2018-05-29T23:56:42.064Z,69.60
2018-05-29T23:59:09.634Z,69.60
